Time;durP1;ratioP1;P1;durP2;ratioP2;P2;SDS_P1;SDS_P2;PMS_P1;PMS_P2;Temp;Humidity;BMP_temperature;BMP_pressure;BME280_temperature;BME280_humidity;BME280_pressure;Samples;Min_cycle;Max_cycle;Signal;HPM_P1;HPM_P2
2022/06/28 00:00:35;;;;;;;3.27;1.63;;;;;;;;;;5036326;28;20399;-69
2022/06/28 00:03:01;;;;;;;1.30;1.30;;;;;;;;;;5036048;28;20549;-70
2022/06/28 00:05:27;;;;;;;3.47;1.80;;;;;;;;;;5036200;28;20913;-70
2022/06/28 00:07:53;;;;;;;1.53;1.40;;;;;;;;;;5036090;28;20403;-69
2022/06/28 00:10:19;;;;;;;2.97;1.73;;;;;;;;;;5034801;28;20484;-69
2022/06/28 00:12:45;;;;;;;1.20;1.10;;;;;;;;;;5036029;28;20417;-69
2022/06/28 00:17:58;;;;;;;1.57;1.30;;;;;;;;;;5035818;28;20481;-69
2022/06/28 00:20:24;;;;;;;1.87;1.87;;;;;;;;;;5035898;28;20418;-69
2022/06/28 00:22:50;;;;;;;1.40;1.40;;;;;;;;;;5035863;28;20780;-69
2022/06/28 00:25:16;;;;;;;1.73;1.50;;;;;;;;;;5035941;28;20396;-70
2022/06/28 00:27:42;;;;;;;1.40;1.40;;;;;;;;;;5035762;28;20419;-69
2022/06/28 00:30:08;;;;;;;2.33;1.80;;;;;;;;;;5035733;28;20457;-70
2022/06/28 00:32:34;;;;;;;7.13;1.30;;;;;;;;;;5035699;28;20411;-69
2022/06/28 00:35:01;;;;;;;1.57;1.47;;;;;;;;;;5035601;28;20411;-69
2022/06/28 00:37:27;;;;;;;1.57;1.50;;;;;;;;;;5035572;28;20470;-69
2022/06/28 00:39:53;;;;;;;5.83;1.50;;;;;;;;;;5035566;28;20459;-70
2022/06/28 00:42:19;;;;;;;5.03;1.83;;;;;;;;;;5035599;28;20473;-69
2022/06/28 00:44:46;;;;;;;7.33;1.60;;;;;;;;;;5034230;28;20875;-68
2022/06/28 00:47:13;;;;;;;2.40;1.27;;;;;;;;;;5035396;28;20907;-69
2022/06/28 00:49:40;;;;;;;3.17;1.90;;;;;;;;;;5035367;28;20410;-70
2022/06/28 00:52:06;;;;;;;5.00;1.50;;;;;;;;;;5035571;28;20467;-69
2022/06/28 00:54:32;;;;;;;4.20;1.60;;;;;;;;;;5035280;28;20410;-69
2022/06/28 00:56:58;;;;;;;4.57;1.20;;;;;;;;;;5035153;28;20473;-69
2022/06/28 00:59:24;;;;;;;2.93;1.73;;;;;;;;;;5034518;28;20405;-70
2022/06/28 01:01:51;;;;;;;2.20;1.37;;;;;;;;;;5035206;28;20891;-70
2022/06/28 01:04:17;;;;;;;1.80;1.70;;;;;;;;;;5034922;28;20954;-70
2022/06/28 01:06:43;;;;;;;3.13;2.23;;;;;;;;;;5035070;28;20491;-70
2022/06/28 01:09:09;;;;;;;6.53;1.60;;;;;;;;;;5035002;28;20420;-70
2022/06/28 01:11:35;;;;;;;2.20;1.77;;;;;;;;;;5034980;28;20895;-70
2022/06/28 01:14:03;;;;;;;7.90;1.90;;;;;;;;;;5035084;28;20416;-70
2022/06/28 01:16:29;;;;;;;1.83;1.73;;;;;;;;;;5035047;28;20464;-71
2022/06/28 01:18:56;;;;;;;5.83;2.37;;;;;;;;;;5033566;28;20492;-68
2022/06/28 01:21:24;;;;;;;2.70;1.63;;;;;;;;;;5034696;28;20897;-70
2022/06/28 01:23:50;;;;;;;3.13;1.50;;;;;;;;;;5034854;28;20416;-70
2022/06/28 01:26:19;;;;;;;8.47;1.80;;;;;;;;;;5034735;28;20828;-71
2022/06/28 01:28:45;;;;;;;10.13;2.00;;;;;;;;;;5034602;28;20417;-68
2022/06/28 01:31:12;;;;;;;3.23;1.73;;;;;;;;;;5034529;28;20417;-70
2022/06/28 01:33:38;;;;;;;1.90;1.80;;;;;;;;;;5034441;28;20432;-70
2022/06/28 01:36:05;;;;;;;2.57;2.03;;;;;;;;;;5034492;28;20796;-68
2022/06/28 01:38:31;;;;;;;4.50;1.90;;;;;;;;;;5034341;28;20469;-69
2022/06/28 01:40:58;;;;;;;2.40;1.70;;;;;;;;;;5034366;28;20404;-68
2022/06/28 01:43:24;;;;;;;2.87;1.47;;;;;;;;;;5034402;28;20422;-69
2022/06/28 01:45:51;;;;;;;1.93;1.70;;;;;;;;;;5034385;28;20871;-68
2022/06/28 01:48:20;;;;;;;1.47;1.47;;;;;;;;;;5034260;28;20856;-69
2022/06/28 01:50:50;;;;;;;6.70;1.70;;;;;;;;;;5034220;28;20859;-69
2022/06/28 01:53:16;;;;;;;2.30;1.50;;;;;;;;;;5034240;28;20388;-69
2022/06/28 01:55:42;;;;;;;2.50;1.87;;;;;;;;;;5034164;28;20413;-69
2022/06/28 01:58:09;;;;;;;2.40;2.10;;;;;;;;;;5033964;28;20496;-69
2022/06/28 02:00:36;;;;;;;1.97;1.97;;;;;;;;;;5033074;28;20785;-70
2022/06/28 02:03:02;;;;;;;2.87;2.07;;;;;;;;;;5033794;28;20513;-69
2022/06/28 02:05:28;;;;;;;3.30;1.97;;;;;;;;;;5034205;28;20799;-69
2022/06/28 02:07:55;;;;;;;3.00;1.73;;;;;;;;;;5033986;28;20496;-69
2022/06/28 02:10:21;;;;;;;3.17;1.93;;;;;;;;;;5032915;28;20444;-69
2022/06/28 02:12:47;;;;;;;1.87;1.77;;;;;;;;;;5033887;28;20411;-69
2022/06/28 02:15:16;;;;;;;2.07;1.80;;;;;;;;;;5032586;28;20769;-69
2022/06/28 02:17:43;;;;;;;4.30;2.03;;;;;;;;;;5033731;28;20476;-69
2022/06/28 02:20:10;;;;;;;2.90;2.70;;;;;;;;;;5033668;28;20429;-69
2022/06/28 02:22:36;;;;;;;5.07;2.47;;;;;;;;;;5033655;28;20416;-68
2022/06/28 02:25:02;;;;;;;6.30;2.40;;;;;;;;;;5033742;28;20734;-69
2022/06/28 02:27:28;;;;;;;3.20;3.00;;;;;;;;;;5033685;28;20410;-69
2022/06/28 02:29:54;;;;;;;3.83;2.97;;;;;;;;;;5033891;28;20750;-68
2022/06/28 02:32:20;;;;;;;6.43;3.20;;;;;;;;;;5033676;28;20409;-69
2022/06/28 02:40:22;;;;;;;4.67;2.00;;;;;;;;;;5033519;28;20438;-69
2022/06/28 02:42:48;;;;;;;3.40;2.67;;;;;;;;;;5032137;28;20440;-68
2022/06/28 02:45:14;;;;;;;5.30;2.50;;;;;;;;;;5033494;28;20476;-68
2022/06/28 02:47:40;;;;;;;2.40;2.30;;;;;;;;;;5033315;28;20417;-68
2022/06/28 02:50:07;;;;;;;3.57;2.30;;;;;;;;;;5033324;28;20833;-69
2022/06/28 02:52:33;;;;;;;2.67;2.57;;;;;;;;;;5033413;28;20791;-69
2022/06/28 02:54:59;;;;;;;2.43;2.20;;;;;;;;;;5033328;28;20417;-68
2022/06/28 02:57:25;;;;;;;5.93;2.47;;;;;;;;;;5033271;28;20477;-69
2022/06/28 02:59:51;;;;;;;9.23;3.10;;;;;;;;;;5033565;28;20437;-69
2022/06/28 03:02:17;;;;;;;7.43;2.63;;;;;;;;;;5033315;28;20446;-69
2022/06/28 03:04:42;;;;;;;3.10;2.90;;;;;;;;;;5033043;28;20462;-69
2022/06/28 03:07:08;;;;;;;7.03;2.93;;;;;;;;;;5033240;28;20911;-68
2022/06/28 03:09:35;;;;;;;7.73;3.30;;;;;;;;;;5033285;28;20506;-69
2022/06/28 03:12:01;;;;;;;2.83;2.50;;;;;;;;;;5033158;28;20901;-69
2022/06/28 03:14:27;;;;;;;4.50;2.70;;;;;;;;;;5031847;28;20422;-69
2022/06/28 03:16:53;;;;;;;7.07;2.80;;;;;;;;;;5033051;28;20966;-69
2022/06/28 03:19:18;;;;;;;5.50;3.53;;;;;;;;;;5033115;28;20504;-69
2022/06/28 03:21:44;;;;;;;7.53;4.10;;;;;;;;;;5034193;28;20403;-69
2022/06/28 03:24:10;;;;;;;5.80;3.30;;;;;;;;;;5035697;28;20434;-69
2022/06/28 03:26:36;;;;;;;4.10;3.20;;;;;;;;;;5037203;28;20504;-69
2022/06/28 03:29:03;;;;;;;3.20;2.90;;;;;;;;;;5036895;28;20457;-69
2022/06/28 03:31:28;;;;;;;3.23;2.27;;;;;;;;;;5035489;28;20428;-68
2022/06/28 03:33:54;;;;;;;6.53;2.50;;;;;;;;;;5036751;28;20429;-68
2022/06/28 03:36:20;;;;;;;2.77;2.57;;;;;;;;;;5036674;28;20962;-68
2022/06/28 03:38:46;;;;;;;10.00;3.50;;;;;;;;;;5036668;28;20432;-69
2022/06/28 03:41:22;;;;;;;5.40;3.43;;;;;;;;;;5036679;28;20408;-69
2022/06/28 03:43:48;;;;;;;2.93;2.70;;;;;;;;;;5036635;28;20422;-69
2022/06/28 03:46:14;;;;;;;2.93;2.73;;;;;;;;;;5036587;28;20845;-69
2022/06/28 03:48:40;;;;;;;5.03;2.37;;;;;;;;;;5036600;28;20907;-69
2022/06/28 03:51:06;;;;;;;2.80;2.60;;;;;;;;;;5036500;28;20435;-69
2022/06/28 03:53:32;;;;;;;5.57;2.03;;;;;;;;;;5051781;28;20888;-69
2022/06/28 03:55:58;;;;;;;3.83;2.27;;;;;;;;;;5036496;28;20483;-68
2022/06/28 03:58:24;;;;;;;3.67;2.37;;;;;;;;;;5036356;28;20549;-69
2022/06/28 04:00:49;;;;;;;7.00;5.93;;;;;;;;;;5036224;28;20410;-69
2022/06/28 04:03:15;;;;;;;24.30;17.47;;;;;;;;;;5036106;28;20542;-68
2022/06/28 04:05:41;;;;;;;3.97;3.67;;;;;;;;;;5036191;28;20980;-68
2022/06/28 04:08:08;;;;;;;10.50;6.73;;;;;;;;;;5036148;28;20415;-68
2022/06/28 04:10:34;;;;;;;6.83;6.20;;;;;;;;;;5036354;28;20463;-69
2022/06/28 04:13:00;;;;;;;6.53;3.50;;;;;;;;;;5051449;28;20468;-68
2022/06/28 04:15:26;;;;;;;3.30;1.90;;;;;;;;;;5036067;28;20909;-68
2022/06/28 04:17:52;;;;;;;2.60;2.40;;;;;;;;;;5035884;28;20469;-68
2022/06/28 04:20:18;;;;;;;3.07;2.57;;;;;;;;;;5035861;28;20437;-68
2022/06/28 04:22:44;;;;;;;2.30;2.10;;;;;;;;;;5035886;28;20416;-68
2022/06/28 04:25:10;;;;;;;5.23;2.90;;;;;;;;;;5035984;28;20509;-69
2022/06/28 04:27:36;;;;;;;6.50;2.53;;;;;;;;;;5035947;28;20410;-69
2022/06/28 04:30:03;;;;;;;3.80;2.53;;;;;;;;;;5035841;28;20825;-67
2022/06/28 04:32:29;;;;;;;15.90;3.50;;;;;;;;;;5035438;28;20420;-68
2022/06/28 04:34:55;;;;;;;5.40;2.10;;;;;;;;;;5034954;28;20417;-68
2022/06/28 04:37:21;;;;;;;10.80;2.77;;;;;;;;;;5035499;28;20970;-69
2022/06/28 04:39:47;;;;;;;3.67;2.27;;;;;;;;;;5034285;28;20534;-68
2022/06/28 04:42:13;;;;;;;3.43;2.10;;;;;;;;;;5035687;28;20504;-69
2022/06/28 04:44:40;;;;;;;2.10;2.03;;;;;;;;;;5035557;28;20476;-68
2022/06/28 04:47:06;;;;;;;2.80;2.57;;;;;;;;;;5035399;28;20877;-69
2022/06/28 04:49:32;;;;;;;5.50;2.50;;;;;;;;;;5035389;28;20422;-68
2022/06/28 04:51:58;;;;;;;7.80;2.13;;;;;;;;;;5034033;28;20520;-67
2022/06/28 04:54:24;;;;;;;2.60;2.10;;;;;;;;;;5035310;28;20418;-69
2022/06/28 04:56:50;;;;;;;3.37;2.00;;;;;;;;;;5034172;28;20491;-69
2022/06/28 04:59:16;;;;;;;2.27;2.07;;;;;;;;;;5035280;28;20776;-68
2022/06/28 05:01:42;;;;;;;2.67;2.30;;;;;;;;;;5035079;28;20418;-68
2022/06/28 05:04:08;;;;;;;2.37;2.27;;;;;;;;;;5034794;28;20477;-68
2022/06/28 05:06:34;;;;;;;2.93;2.73;;;;;;;;;;5035047;28;20409;-67
2022/06/28 05:09:00;;;;;;;2.50;2.40;;;;;;;;;;5035303;28;20440;-68
2022/06/28 05:11:26;;;;;;;2.63;2.53;;;;;;;;;;5035014;28;20834;-68
2022/06/28 05:13:52;;;;;;;3.10;2.90;;;;;;;;;;5034989;28;20880;-67
2022/06/28 05:16:18;;;;;;;4.40;2.63;;;;;;;;;;5034881;28;20402;-68
2022/06/28 05:18:44;;;;;;;4.60;2.83;;;;;;;;;;5034748;28;20834;-68
2022/06/28 05:21:10;;;;;;;4.50;2.63;;;;;;;;;;5033528;28;20408;-68
2022/06/28 05:23:37;;;;;;;3.10;2.93;;;;;;;;;;5034778;28;20415;-65
2022/06/28 05:26:03;;;;;;;4.60;3.80;;;;;;;;;;5034713;28;20402;-66
2022/06/28 05:28:29;;;;;;;3.47;3.20;;;;;;;;;;5034590;28;20412;-69
2022/06/28 05:30:55;;;;;;;6.00;3.20;;;;;;;;;;5034617;28;20409;-67
2022/06/28 05:33:22;;;;;;;6.53;3.80;;;;;;;;;;5034539;28;20775;-67
2022/06/28 05:35:48;;;;;;;3.70;3.60;;;;;;;;;;5034455;28;20413;-66
2022/06/28 05:38:14;;;;;;;3.17;3.07;;;;;;;;;;5034362;28;20474;-70
2022/06/28 05:40:40;;;;;;;5.27;3.90;;;;;;;;;;5034409;28;20458;-66
2022/06/28 05:43:06;;;;;;;4.20;3.90;;;;;;;;;;5034414;28;20468;-66
2022/06/28 05:45:32;;;;;;;3.97;3.77;;;;;;;;;;5034158;28;20408;-64
2022/06/28 05:47:58;;;;;;;4.07;3.80;;;;;;;;;;5034192;28;20420;-67
2022/06/28 05:50:24;;;;;;;3.50;3.33;;;;;;;;;;5034314;28;20420;-67
2022/06/28 05:52:50;;;;;;;3.80;3.70;;;;;;;;;;5034076;28;20445;-66
2022/06/28 05:55:16;;;;;;;3.77;3.50;;;;;;;;;;5034101;28;20463;-67
2022/06/28 05:57:42;;;;;;;5.10;4.00;;;;;;;;;;5033834;28;20561;-74
2022/06/28 06:00:09;;;;;;;5.03;3.50;;;;;;;;;;5033948;28;20418;-66
2022/06/28 06:02:35;;;;;;;3.97;3.87;;;;;;;;;;5033932;28;20425;-66
2022/06/28 06:05:02;;;;;;;3.70;3.40;;;;;;;;;;5033665;28;20424;-66
2022/06/28 06:07:29;;;;;;;3.97;3.87;;;;;;;;;;5033698;28;20912;-67
2022/06/28 06:09:55;;;;;;;3.57;3.47;;;;;;;;;;5033714;28;20405;-66
2022/06/28 06:12:21;;;;;;;3.80;3.50;;;;;;;;;;5033695;28;20746;-66
2022/06/28 06:14:47;;;;;;;4.97;3.40;;;;;;;;;;5033816;28;20402;-66
2022/06/28 06:17:13;;;;;;;3.90;3.80;;;;;;;;;;5033583;28;20543;-66
2022/06/28 06:19:39;;;;;;;6.90;3.83;;;;;;;;;;5033521;28;20505;-72
2022/06/28 06:22:05;;;;;;;3.33;3.23;;;;;;;;;;5033590;28;20398;-66
2022/06/28 06:24:31;;;;;;;3.37;3.27;;;;;;;;;;5033622;28;20414;-66
2022/06/28 06:26:57;;;;;;;3.40;3.30;;;;;;;;;;5033549;28;20437;-66
2022/06/28 06:29:23;;;;;;;4.40;2.80;;;;;;;;;;5033408;28;20486;-67
2022/06/28 06:31:49;;;;;;;3.20;3.10;;;;;;;;;;5033421;28;20769;-66
2022/06/28 06:34:15;;;;;;;3.40;3.13;;;;;;;;;;5033460;28;20421;-66
2022/06/28 06:36:41;;;;;;;2.97;2.70;;;;;;;;;;5031983;28;20437;-66
2022/06/28 06:39:08;;;;;;;4.50;3.30;;;;;;;;;;5033311;28;20971;-67
2022/06/28 06:41:34;;;;;;;3.80;2.73;;;;;;;;;;5033300;28;20422;-66
2022/06/28 06:44:00;;;;;;;7.13;2.70;;;;;;;;;;5032032;28;20433;-67
2022/06/28 06:46:26;;;;;;;2.77;2.67;;;;;;;;;;5033216;28;20413;-67
2022/06/28 06:48:52;;;;;;;4.00;3.17;;;;;;;;;;5031917;28;20936;-67
2022/06/28 06:51:18;;;;;;;5.50;2.63;;;;;;;;;;5031979;28;20597;-67
2022/06/28 06:53:44;;;;;;;3.03;2.83;;;;;;;;;;5033257;28;20406;-67
2022/06/28 06:56:10;;;;;;;2.57;2.40;;;;;;;;;;5033447;28;20414;-66
2022/06/28 06:58:36;;;;;;;3.30;3.10;;;;;;;;;;5037436;28;20552;-65
2022/06/28 07:01:03;;;;;;;4.00;2.70;;;;;;;;;;5037375;28;20866;-73
2022/06/28 07:03:29;;;;;;;5.33;3.10;;;;;;;;;;5036946;28;20506;-68
2022/06/28 07:05:55;;;;;;;2.53;2.53;;;;;;;;;;5037090;28;20415;-69
2022/06/28 07:08:21;;;;;;;3.07;2.87;;;;;;;;;;5037193;28;20458;-68
2022/06/28 07:10:47;;;;;;;7.07;3.00;;;;;;;;;;5037398;28;20399;-69
2022/06/28 07:13:13;;;;;;;2.90;2.70;;;;;;;;;;5037006;28;20879;-68
2022/06/28 07:15:39;;;;;;;2.93;2.83;;;;;;;;;;5036963;28;20397;-69
2022/06/28 07:18:05;;;;;;;6.00;3.37;;;;;;;;;;5037046;28;20469;-71
2022/06/28 07:20:31;;;;;;;2.70;2.60;;;;;;;;;;5037074;28;20411;-69
2022/06/28 07:22:57;;;;;;;2.87;2.80;;;;;;;;;;5036829;28;20417;-72
2022/06/28 07:25:23;;;;;;;2.63;2.43;;;;;;;;;;5036882;28;20411;-68
2022/06/28 07:27:49;;;;;;;2.83;2.60;;;;;;;;;;5036769;28;20410;-69
2022/06/28 07:30:15;;;;;;;2.50;2.40;;;;;;;;;;5036763;28;20406;-72
2022/06/28 07:32:41;;;;;;;2.73;2.30;;;;;;;;;;5035374;28;20432;-69
2022/06/28 07:35:07;;;;;;;2.63;2.43;;;;;;;;;;5036609;28;20446;-68
2022/06/28 07:37:34;;;;;;;2.67;2.37;;;;;;;;;;5036724;28;20567;-68
2022/06/28 07:40:00;;;;;;;3.10;2.70;;;;;;;;;;5036603;28;20423;-72
2022/06/28 07:42:26;;;;;;;2.50;2.40;;;;;;;;;;5036513;28;20409;-68
2022/06/28 07:44:52;;;;;;;3.50;2.90;;;;;;;;;;5036399;28;20401;-72
2022/06/28 07:47:18;;;;;;;2.10;2.10;;;;;;;;;;5036405;28;20783;-69
2022/06/28 07:52:34;;;;;;;2.50;2.37;;;;;;;;;;5036381;28;20412;-72
2022/06/28 07:55:01;;;;;;;3.37;3.03;;;;;;;;;;5036265;28;20457;-72
2022/06/28 07:57:27;;;;;;;3.10;2.90;;;;;;;;;;5036244;28;20477;-70
2022/06/28 07:59:53;;;;;;;3.20;3.10;;;;;;;;;;5036375;28;20413;-72
2022/06/28 08:02:19;;;;;;;2.80;2.80;;;;;;;;;;5036314;28;20413;-74
2022/06/28 08:04:45;;;;;;;3.70;3.60;;;;;;;;;;5034795;28;20843;-69
2022/06/28 08:07:11;;;;;;;4.17;2.77;;;;;;;;;;5036191;28;20412;-69
2022/06/28 08:09:37;;;;;;;2.10;2.10;;;;;;;;;;5034962;28;20842;-69
2022/06/28 08:12:03;;;;;;;2.60;2.40;;;;;;;;;;5034862;28;20433;-73
2022/06/28 08:14:29;;;;;;;2.10;2.10;;;;;;;;;;5036136;28;20905;-72
2022/06/28 08:16:56;;;;;;;2.10;1.90;;;;;;;;;;5036034;28;20455;-74
2022/06/28 08:19:22;;;;;;;2.60;2.17;;;;;;;;;;5035947;28;20415;-71
2022/06/28 08:21:49;;;;;;;3.73;2.50;;;;;;;;;;5036020;28;20878;-70
2022/06/28 08:24:15;;;;;;;3.17;2.33;;;;;;;;;;5035990;28;20466;-69
2022/06/28 08:26:42;;;;;;;2.40;2.00;;;;;;;;;;5035974;28;20922;-70
2022/06/28 08:29:18;;;;;;;5.23;2.00;;;;;;;;;;5035877;28;20409;-70
2022/06/28 08:31:44;;;;;;;2.20;2.20;;;;;;;;;;5035790;28;20831;-73
2022/06/28 08:34:10;;;;;;;2.80;1.90;;;;;;;;;;5034446;28;20454;-68
2022/06/28 08:36:36;;;;;;;5.13;2.10;;;;;;;;;;5035465;28;20404;-71
2022/06/28 08:39:03;;;;;;;6.77;2.67;;;;;;;;;;5035633;28;20413;-72
2022/06/28 08:41:31;;;;;;;5.40;2.33;;;;;;;;;;5035583;28;20460;-73
2022/06/28 08:43:58;;;;;;;2.00;2.00;;;;;;;;;;5035586;28;20414;-72
2022/06/28 08:46:24;;;;;;;1.83;1.77;;;;;;;;;;5035574;28;20425;-69
2022/06/28 08:48:52;;;;;;;7.93;2.30;;;;;;;;;;5034332;28;20484;-69
2022/06/28 08:51:19;;;;;;;1.90;1.90;;;;;;;;;;5034122;28;20464;-72
2022/06/28 08:53:46;;;;;;;1.87;1.87;;;;;;;;;;5035449;28;20781;-73
2022/06/28 08:56:13;;;;;;;4.23;2.07;;;;;;;;;;5035446;28;20414;-71
2022/06/28 08:58:42;;;;;;;3.60;1.70;;;;;;;;;;5035224;28;20473;-73
2022/06/28 09:01:08;;;;;;;1.73;1.63;;;;;;;;;;5035316;28;20445;-74
2022/06/28 09:03:34;;;;;;;2.10;1.67;;;;;;;;;;5035042;28;20477;-73
2022/06/28 09:06:00;;;;;;;1.80;1.70;;;;;;;;;;5033762;28;20431;-70
2022/06/28 09:08:27;;;;;;;5.13;1.80;;;;;;;;;;5035162;28;20811;-72
2022/06/28 09:10:52;;;;;;;1.70;1.70;;;;;;;;;;5035067;28;20460;-72
2022/06/28 09:13:20;;;;;;;2.00;1.63;;;;;;;;;;5035028;28;20528;-71
2022/06/28 09:16:00;;;;;;;1.67;1.67;;;;;;;;;;5033555;28;20477;-70
2022/06/28 09:18:35;;;;;;;2.30;2.10;;;;;;;;;;5034770;28;20478;-73
2022/06/28 09:21:01;;;;;;;1.77;1.77;;;;;;;;;;5034341;28;20415;-71
2022/06/28 09:23:28;;;;;;;2.03;1.93;;;;;;;;;;5033420;28;20458;-69
2022/06/28 09:25:57;;;;;;;3.13;1.90;;;;;;;;;;5033559;28;20432;-69
2022/06/28 09:28:32;;;;;;;1.97;1.70;;;;;;;;;;5034748;28;20411;-74
2022/06/28 09:31:16;;;;;;;2.30;2.10;;;;;;;;;;5034691;28;20948;-71
2022/06/28 09:33:43;;;;;;;2.00;1.90;;;;;;;;;;5034524;28;20766;-74
2022/06/28 09:36:10;;;;;;;1.70;1.60;;;;;;;;;;5034578;28;20413;-71
2022/06/28 09:38:36;;;;;;;1.87;1.77;;;;;;;;;;5034480;28;20827;-69
2022/06/28 09:41:02;;;;;;;1.90;1.80;;;;;;;;;;5034426;28;20407;-69
2022/06/28 09:43:33;;;;;;;4.37;1.90;;;;;;;;;;5034479;28;20416;-69
2022/06/28 09:46:02;;;;;;;2.10;2.00;;;;;;;;;;5034348;28;20404;-69
2022/06/28 09:48:31;;;;;;;2.10;1.50;;;;;;;;;;5034393;28;20873;-69
2022/06/28 09:50:58;;;;;;;5.13;2.10;;;;;;;;;;5034255;28;20527;-74
2022/06/28 09:53:25;;;;;;;6.23;1.73;;;;;;;;;;5034281;28;20412;-72
2022/06/28 09:55:52;;;;;;;2.07;1.97;;;;;;;;;;5034159;28;20427;-71
2022/06/28 09:58:19;;;;;;;1.40;1.40;;;;;;;;;;5034095;28;20471;-73
2022/06/28 10:00:45;;;;;;;2.00;1.60;;;;;;;;;;5034125;28;20410;-72
2022/06/28 10:03:11;;;;;;;1.63;1.63;;;;;;;;;;5033968;28;20472;-71
2022/06/28 10:05:37;;;;;;;1.83;1.73;;;;;;;;;;5034011;28;20420;-72
2022/06/28 10:08:03;;;;;;;1.80;1.63;;;;;;;;;;5033969;28;20900;-70
2022/06/28 10:10:30;;;;;;;5.07;1.60;;;;;;;;;;5033988;28;20884;-71
2022/06/28 10:16:05;;;;;;;1.77;1.77;;;;;;;;;;5033842;28;20395;-72
2022/06/28 10:18:31;;;;;;;3.83;2.10;;;;;;;;;;5033797;28;20550;-70
2022/06/28 10:20:57;;;;;;;2.40;2.03;;;;;;;;;;5033778;28;20825;-71
2022/06/28 10:23:25;;;;;;;3.63;2.33;;;;;;;;;;5033668;28;20412;-72
2022/06/28 10:26:13;;;;;;;1.87;1.87;;;;;;;;;;5033787;28;20437;-72
2022/06/28 10:28:39;;;;;;;2.00;1.90;;;;;;;;;;5033662;28;20444;-73
2022/06/28 10:31:24;;;;;;;7.93;2.10;;;;;;;;;;5031552;28;20447;-72
2022/06/28 10:33:50;;;;;;;1.87;1.87;;;;;;;;;;5033659;28;20179;-72
2022/06/28 10:36:17;;;;;;;1.43;1.43;;;;;;;;;;5032336;28;20428;-70
2022/06/28 10:39:01;;;;;;;1.63;1.40;;;;;;;;;;5033493;28;21040;-70
2022/06/28 10:41:46;;;;;;;1.70;1.60;;;;;;;;;;5033357;28;20403;-73
2022/06/28 10:44:20;;;;;;;1.40;1.30;;;;;;;;;;5033328;28;20420;-71
2022/06/28 10:47:02;;;;;;;2.00;1.60;;;;;;;;;;5033284;28;20556;-71
2022/06/28 10:49:46;;;;;;;2.50;1.50;;;;;;;;;;5033433;28;20876;-72
2022/06/28 10:52:16;;;;;;;1.60;1.60;;;;;;;;;;5033401;28;20453;-72
2022/06/28 10:55:05;;;;;;;1.70;1.60;;;;;;;;;;5033253;28;20506;-69
2022/06/28 10:57:31;;;;;;;1.67;1.67;;;;;;;;;;5033124;28;20483;-73
2022/06/28 10:59:58;;;;;;;1.40;1.40;;;;;;;;;;5033253;28;20414;-72
2022/06/28 11:02:25;;;;;;;1.60;1.50;;;;;;;;;;5033615;28;20253;-72
2022/06/28 11:05:05;;;;;;;4.10;1.70;;;;;;;;;;5033285;28;21047;-72
2022/06/28 11:07:31;;;;;;;1.70;1.60;;;;;;;;;;5032055;28;20770;-74
2022/06/28 11:10:04;;;;;;;1.20;1.20;;;;;;;;;;5033248;28;20419;-70
2022/06/28 11:12:30;;;;;;;1.90;1.80;;;;;;;;;;5033139;28;20935;-71
2022/06/28 11:14:58;;;;;;;1.60;1.50;;;;;;;;;;5033214;28;20416;-73
2022/06/28 11:17:28;;;;;;;1.23;1.23;;;;;;;;;;5031876;28;20221;-71
2022/06/28 11:19:56;;;;;;;1.37;1.37;;;;;;;;;;5033142;28;20436;-72
2022/06/28 11:22:22;;;;;;;1.57;1.57;;;;;;;;;;5031869;28;20414;-71
2022/06/28 11:24:49;;;;;;;2.00;1.40;;;;;;;;;;5033174;28;20433;-73
2022/06/28 11:27:21;;;;;;;1.73;1.60;;;;;;;;;;5033089;28;20772;-73
2022/06/28 11:29:50;;;;;;;1.20;1.20;;;;;;;;;;5033316;28;20393;-73
2022/06/28 11:32:22;;;;;;;1.63;1.53;;;;;;;;;;5032725;28;20418;-70
2022/06/28 11:35:09;;;;;;;3.70;1.70;;;;;;;;;;5032845;28;20414;-71
2022/06/28 11:37:55;;;;;;;1.60;1.60;;;;;;;;;;5032720;28;20462;-70
2022/06/28 11:40:21;;;;;;;2.13;1.90;;;;;;;;;;5032963;28;20915;-71
2022/06/28 11:42:48;;;;;;;1.63;1.50;;;;;;;;;;5034060;28;20400;-71
2022/06/28 11:45:15;;;;;;;1.10;1.10;;;;;;;;;;5036693;28;20413;-72
2022/06/28 11:47:42;;;;;;;1.20;1.20;;;;;;;;;;5036664;28;20392;-73
2022/06/28 11:50:17;;;;;;;1.40;1.40;;;;;;;;;;5035372;28;20423;-72
2022/06/28 11:52:51;;;;;;;3.57;1.50;;;;;;;;;;5036633;28;20398;-70
2022/06/28 11:55:18;;;;;;;1.53;1.53;;;;;;;;;;5036601;28;20429;-71
2022/06/28 11:57:44;;;;;;;1.50;1.50;;;;;;;;;;5036372;28;20474;-72
2022/06/28 12:00:13;;;;;;;1.60;1.50;;;;;;;;;;5036525;28;20406;-74
2022/06/28 12:02:40;;;;;;;6.17;1.83;;;;;;;;;;5034973;28;20476;-73
2022/06/28 12:05:07;;;;;;;1.40;1.40;;;;;;;;;;5036282;28;20784;-73
2022/06/28 12:07:40;;;;;;;7.00;1.63;;;;;;;;;;5036246;28;20427;-70
2022/06/28 12:10:10;;;;;;;1.83;1.73;;;;;;;;;;5036261;28;20410;-66
2022/06/28 12:12:42;;;;;;;1.90;1.80;;;;;;;;;;5036290;28;20893;-66
2022/06/28 12:15:08;;;;;;;2.20;1.90;;;;;;;;;;5036108;28;20415;-66
2022/06/28 12:17:43;;;;;;;2.27;2.10;;;;;;;;;;5035966;28;20519;-69
2022/06/28 12:20:09;;;;;;;2.20;2.07;;;;;;;;;;5035967;28;20419;-69
2022/06/28 12:22:35;;;;;;;1.97;1.80;;;;;;;;;;5036034;28;20418;-70
2022/06/28 12:25:08;;;;;;;1.80;1.80;;;;;;;;;;5036009;28;20418;-71
2022/06/28 12:27:36;;;;;;;1.90;1.80;;;;;;;;;;5035962;28;20502;-69
2022/06/28 12:30:03;;;;;;;2.20;1.83;;;;;;;;;;5035915;28;20447;-70
2022/06/28 12:32:29;;;;;;;1.50;1.50;;;;;;;;;;5035697;28;20473;-70
2022/06/28 12:34:58;;;;;;;2.33;2.00;;;;;;;;;;5035789;28;20514;-72
2022/06/28 12:37:25;;;;;;;1.70;1.70;;;;;;;;;;5035868;28;20475;-73
2022/06/28 12:39:51;;;;;;;1.80;1.80;;;;;;;;;;5035669;28;20818;-76
2022/06/28 12:42:17;;;;;;;1.77;1.77;;;;;;;;;;5035529;28;20449;-73
2022/06/28 12:44:43;;;;;;;1.37;1.37;;;;;;;;;;5035626;28;20398;-74
2022/06/28 12:47:10;;;;;;;1.93;1.50;;;;;;;;;;5035419;28;20912;-75
2022/06/28 12:49:36;;;;;;;5.33;2.43;;;;;;;;;;5035398;28;20412;-74
2022/06/28 12:52:02;;;;;;;3.70;2.00;;;;;;;;;;5035416;28;20391;-74
2022/06/28 12:54:28;;;;;;;3.13;1.97;;;;;;;;;;5034439;28;20921;-70
2022/06/28 12:56:54;;;;;;;1.97;1.97;;;;;;;;;;5035232;28;20814;-75
2022/06/28 12:59:20;;;;;;;2.10;2.10;;;;;;;;;;5035332;28;20483;-74
2022/06/28 13:01:46;;;;;;;2.40;2.30;;;;;;;;;;5035284;28;20407;-72
2022/06/28 13:04:13;;;;;;;2.10;2.00;;;;;;;;;;5035107;28;20482;-73
2022/06/28 13:06:42;;;;;;;2.10;2.10;;;;;;;;;;5035109;28;20502;-71
2022/06/28 13:09:08;;;;;;;2.57;2.37;;;;;;;;;;5035174;28;20412;-71
2022/06/28 13:11:34;;;;;;;2.17;2.17;;;;;;;;;;5035087;28;20426;-71
2022/06/28 13:14:00;;;;;;;2.90;2.90;;;;;;;;;;5035044;28;20493;-71
2022/06/28 13:16:26;;;;;;;2.50;2.40;;;;;;;;;;5034950;28;20758;-67
2022/06/28 13:18:52;;;;;;;2.40;2.30;;;;;;;;;;5034915;28;20481;-66
2022/06/28 13:21:18;;;;;;;2.50;2.20;;;;;;;;;;5034870;28;20415;-65
2022/06/28 13:23:44;;;;;;;5.63;5.10;;;;;;;;;;5034885;28;20921;-67
2022/06/28 13:26:10;;;;;;;2.57;2.57;;;;;;;;;;5035173;28;20411;-67
2022/06/28 13:28:36;;;;;;;6.43;2.73;;;;;;;;;;5034729;28;20458;-66
2022/06/28 13:31:02;;;;;;;2.40;2.20;;;;;;;;;;5034641;28;20441;-65
2022/06/28 13:33:28;;;;;;;2.40;2.20;;;;;;;;;;5034737;28;20415;-67
2022/06/28 13:35:57;;;;;;;3.37;2.40;;;;;;;;;;5034633;28;20455;-66
2022/06/28 13:38:22;;;;;;;2.50;2.50;;;;;;;;;;5034521;28;20469;-65
2022/06/28 13:40:49;;;;;;;2.70;2.50;;;;;;;;;;5034423;28;20771;-66
2022/06/28 13:43:33;;;;;;;2.60;2.50;;;;;;;;;;5034598;28;20491;-67
2022/06/28 13:46:06;;;;;;;2.60;2.40;;;;;;;;;;5034459;28;20384;-67
2022/06/28 13:48:32;;;;;;;2.60;2.40;;;;;;;;;;5034427;28;20408;-66
2022/06/28 13:50:59;;;;;;;2.90;2.57;;;;;;;;;;5034288;28;20940;-67
2022/06/28 13:53:25;;;;;;;2.50;2.40;;;;;;;;;;5034293;28;20451;-67
2022/06/28 13:55:53;;;;;;;2.80;2.70;;;;;;;;;;5034231;28;20399;-64
2022/06/28 13:58:20;;;;;;;2.50;2.40;;;;;;;;;;5034195;28;20473;-65
2022/06/28 14:03:57;;;;;;;2.43;2.20;;;;;;;;;;5011900;28;20495;-67
2022/06/28 14:06:23;;;;;;;2.70;2.70;;;;;;;;;;5013829;28;20414;-69
2022/06/28 14:08:49;;;;;;;2.50;2.43;;;;;;;;;;5014078;28;20463;-67
2022/06/28 14:11:15;;;;;;;2.30;2.20;;;;;;;;;;5013905;28;20411;-69
2022/06/28 14:13:41;;;;;;;2.50;2.40;;;;;;;;;;5013720;28;20409;-76
2022/06/28 14:16:07;;;;;;;2.73;2.60;;;;;;;;;;5013930;28;20421;-71
2022/06/28 14:18:34;;;;;;;2.50;2.30;;;;;;;;;;5013669;28;20470;-69
2022/06/28 14:21:02;;;;;;;2.50;2.30;;;;;;;;;;5013818;28;20503;-70
2022/06/28 14:23:28;;;;;;;2.20;2.20;;;;;;;;;;5013977;28;20405;-72
2022/06/28 14:25:54;;;;;;;2.00;1.93;;;;;;;;;;5013838;28;20434;-69
2022/06/28 14:28:20;;;;;;;2.50;2.47;;;;;;;;;;5013564;28;20427;-70
2022/06/28 14:30:46;;;;;;;2.80;2.60;;;;;;;;;;5013620;28;20895;-71
2022/06/28 14:33:13;;;;;;;3.17;2.50;;;;;;;;;;5013966;28;20422;-69
2022/06/28 14:35:39;;;;;;;2.37;2.37;;;;;;;;;;5014017;28;20413;-69
2022/06/28 14:38:05;;;;;;;2.83;2.30;;;;;;;;;;5013407;28;20468;-69
2022/06/28 14:40:32;;;;;;;2.20;2.20;;;;;;;;;;5013528;28;20450;-66
2022/06/28 14:42:59;;;;;;;2.30;2.20;;;;;;;;;;5013758;28;20419;-66
2022/06/28 14:45:27;;;;;;;2.20;2.10;;;;;;;;;;5013626;28;20402;-64
2022/06/28 14:47:53;;;;;;;2.50;2.40;;;;;;;;;;5013072;28;20926;-71
2022/06/28 14:50:19;;;;;;;2.23;2.23;;;;;;;;;;5013656;28;20494;-67
2022/06/28 14:52:45;;;;;;;2.83;2.70;;;;;;;;;;5013606;28;20460;-66
2022/06/28 14:55:11;;;;;;;2.70;2.53;;;;;;;;;;5013725;28;20402;-68
2022/06/28 14:57:37;;;;;;;2.60;2.50;;;;;;;;;;5013324;28;20967;-70
2022/06/28 15:00:03;;;;;;;2.27;2.27;;;;;;;;;;5013567;28;20404;-70